This is the latest recevied weather packets stored in our database for station/object OE-11204. If no packets are shown the sender has not sent any weather packets the latest 10 day(s).
| Time | Temp. | Humidity | Pressure | Rain* | Wind** | Luminosity | Snow |
|---|---|---|---|---|---|---|---|
| 1787666115 | 20° C | 75% | 1011.6 hPa | 0 mm | - | 557 W/m² | - |
| 1787665288 | 20° C | 77% | 1011.8 hPa | 0 mm | - | 359 W/m² | - |
| 1787664915 | 19.44° C | 79% | 1011.9 hPa | 0 mm | - | 241 W/m² | - |
| 1787664315 | 19.44° C | 77% | 1012 hPa | 0 mm | - | 266 W/m² | - |
| 1787663488 | 19.44° C | 80% | 1012 hPa | 0 mm | - | 303 W/m² | - |
| 1787663115 | 19.44° C | 80% | 1012 hPa | 0 mm | - | 297 W/m² | - |
| 1787662515 | 19.44° C | 80% | 1011.9 hPa | 0 mm | - | 340 W/m² | - |
| 1787661688 | 18.89° C | 80% | 1012.1 hPa | 0 mm | - | 371 W/m² | - |
| 1787661315 | 19.44° C | 82% | 1012.1 hPa | 0.25 mm | - | 322 W/m² | - |
| 1787660715 | 18.89° C | 82% | 1012.3 hPa | 0 mm | - | 291 W/m² | - |
| 1787660127 | 18.89° C | 82% | 1012.3 hPa | 0 mm | - | 272 W/m² | - |
| 1787659515 | 18.89° C | 81% | 1012.4 hPa | 0 mm | - | 272 W/m² | - |
| 1787658915 | 18.89° C | 81% | 1012.4 hPa | 0 mm | - | 297 W/m² | - |
| 1787658088 | 18.89° C | 81% | 1012.4 hPa | 0.25 mm | - | 340 W/m² | - |
| 1787657714 | 18.33° C | 82% | 1012.4 hPa | 0.25 mm | - | 371 W/m² | - |
| 1787657114 | 18.33° C | 83% | 1012.3 hPa | 0.25 mm | - | 483 W/m² | - |
| 1787654488 | 17.78° C | 84% | 1012.4 hPa | 0.25 mm | - | 142 W/m² | - |
| 1787654111 | 17.78° C | 82% | 1012.4 hPa | 0 mm | - | 124 W/m² | - |
| 1787652314 | 17.78° C | 81% | 1012.4 hPa | 0 mm | - | 155 W/m² | - |
| 1787651714 | 17.78° C | 81% | 1012.4 hPa | 0 mm | - | 179 W/m² | - |
| 1787650888 | 17.78° C | 80% | 1012.4 hPa | 0 mm | - | 266 W/m² | - |
| 1787650515 | 17.78° C | 82% | 1012.6 hPa | 0 mm | - | 309 W/m² | - |
| 1787649915 | 17.78° C | 81% | 1012.7 hPa | 0 mm | - | 297 W/m² | - |
| 1787649087 | 17.22° C | 81% | 1013.1 hPa | 0 mm | - | 322 W/m² | - |
| 1787648715 | 17.22° C | 85% | 1013.1 hPa | 0 mm | - | 241 W/m² | - |
* Rain latest hour (hover to see other rain measurements)
** Current wind speed in m/s (hover to see current wind gust speed)